createdAt,value
2023-04-16T00:00:24.094Z,0.52
2023-04-16T00:01:24.110Z,0.52
2023-04-16T00:02:24.372Z,0.52
2023-04-16T00:03:24.593Z,0.53
2023-04-16T00:04:24.422Z,0.53
2023-04-16T00:05:24.382Z,0.52
2023-04-16T00:06:24.410Z,0.52
2023-04-16T00:07:24.478Z,0.52
2023-04-16T00:08:24.556Z,0.52
2023-04-16T00:09:24.584Z,0.53
2023-04-16T00:10:24.653Z,0.53
2023-04-16T00:11:24.737Z,0.53
2023-04-16T00:12:24.780Z,0.53
2023-04-16T00:13:24.826Z,0.54
2023-04-16T00:14:24.879Z,0.53
2023-04-16T00:15:24.959Z,0.53
2023-04-16T00:16:25.062Z,0.53
2023-04-16T00:17:25.061Z,0.52
2023-04-16T00:18:25.126Z,0.53
2023-04-16T00:19:25.205Z,0.52
2023-04-16T00:20:25.263Z,0.53
2023-04-16T00:21:25.312Z,0.53
2023-04-16T00:22:25.370Z,0.53
2023-04-16T00:23:25.488Z,0.53
2023-04-16T00:24:25.518Z,0.52
2023-04-16T00:25:25.537Z,0.54
2023-04-16T00:26:25.616Z,0.54
2023-04-16T00:27:25.667Z,0.53
2023-04-16T00:28:26.530Z,0.53
2023-04-16T00:29:25.798Z,0.53
2023-04-16T00:30:25.844Z,0.53
2023-04-16T00:31:25.910Z,0.52
2023-04-16T00:32:26.032Z,0.52
2023-04-16T00:33:26.078Z,0.52
2023-04-16T00:34:26.133Z,0.52
2023-04-16T00:35:26.160Z,0.53
2023-04-16T00:36:26.263Z,0.51
2023-04-16T00:37:26.296Z,0.52
2023-04-16T00:38:26.370Z,0.53
2023-04-16T00:39:26.456Z,0.52
2023-04-16T00:40:26.483Z,0.52
2023-04-16T00:41:26.566Z,0.52
2023-04-16T00:42:26.613Z,0.52
2023-04-16T00:43:26.704Z,0.53
2023-04-16T00:44:26.781Z,0.51
2023-04-16T00:45:26.826Z,0.52
2023-04-16T00:46:26.893Z,0.53
2023-04-16T00:47:26.997Z,0.52
2023-04-16T00:48:27.008Z,0.53
2023-04-16T00:49:27.097Z,0.52
2023-04-16T00:50:27.142Z,0.52
2023-04-16T00:51:27.200Z,0.53
2023-04-16T00:52:27.307Z,0.52
2023-04-16T00:53:27.375Z,0.53
2023-04-16T00:54:27.370Z,0.52
2023-04-16T00:55:27.483Z,0.52
2023-04-16T00:56:27.548Z,0.53
2023-04-16T00:57:27.608Z,0.53
2023-04-16T00:58:27.626Z,0.53
2023-04-16T00:59:27.711Z,0.53
2023-04-16T01:00:27.782Z,0.53
2023-04-16T01:01:27.834Z,0.52
2023-04-16T01:02:27.938Z,0.52
2023-04-16T01:03:28.021Z,0.52
2023-04-16T01:04:28.056Z,0.51
2023-04-16T01:05:28.045Z,0.51
2023-04-16T01:06:28.085Z,0.51
2023-04-16T01:07:28.135Z,0.51
2023-04-16T01:08:28.171Z,0.50
2023-04-16T01:09:28.189Z,0.50
2023-04-16T01:10:28.205Z,0.51
2023-04-16T01:11:28.228Z,0.51
2023-04-16T01:12:28.278Z,0.52
2023-04-16T01:13:28.314Z,0.51
2023-04-16T01:14:28.422Z,0.50
2023-04-16T01:15:28.433Z,0.50
2023-04-16T01:16:28.542Z,0.51
2023-04-16T01:17:28.553Z,0.50
2023-04-16T01:18:28.620Z,0.51
2023-04-16T01:19:28.643Z,0.50
2023-04-16T01:20:28.743Z,0.51
2023-04-16T01:21:28.788Z,0.50
2023-04-16T01:22:28.885Z,0.50
2023-04-16T01:23:28.935Z,0.50
2023-04-16T01:24:29.003Z,0.50
2023-04-16T01:25:29.055Z,0.50
2023-04-16T01:26:29.102Z,0.51
2023-04-16T01:27:29.179Z,0.50
2023-04-16T01:28:29.240Z,0.50
2023-04-16T01:29:29.300Z,0.50
2023-04-16T01:30:29.360Z,0.51
2023-04-16T01:31:29.470Z,0.50
2023-04-16T01:32:29.490Z,0.51
2023-04-16T01:33:29.556Z,0.51
2023-04-16T01:34:29.628Z,0.51
2023-04-16T01:35:29.680Z,0.50
2023-04-16T01:36:29.711Z,0.51
2023-04-16T01:37:29.823Z,0.50
2023-04-16T01:38:29.864Z,0.51
2023-04-16T01:39:29.958Z,0.51
2023-04-16T01:40:29.996Z,0.51
2023-04-16T01:41:30.050Z,0.51
2023-04-16T01:42:30.133Z,0.51
2023-04-16T01:43:30.220Z,0.51
2023-04-16T01:44:30.223Z,0.51
2023-04-16T01:45:30.329Z,0.52
2023-04-16T01:46:30.432Z,0.51
2023-04-16T01:47:30.422Z,0.51
2023-04-16T01:48:30.477Z,0.51
2023-04-16T01:49:30.562Z,0.51
2023-04-16T01:50:30.597Z,0.51
2023-04-16T01:51:30.654Z,0.51
2023-04-16T01:52:30.763Z,0.51
2023-04-16T01:53:30.848Z,0.51
2023-04-16T01:54:30.882Z,0.51
2023-04-16T01:55:30.933Z,0.51
2023-04-16T01:56:31.006Z,0.51
2023-04-16T01:57:31.043Z,0.51
2023-04-16T01:58:31.144Z,0.51
2023-04-16T01:59:31.224Z,0.50
2023-04-16T02:00:31.317Z,0.51
2023-04-16T02:01:31.336Z,0.51
2023-04-16T02:02:31.484Z,0.51
2023-04-16T02:03:31.688Z,0.51
2023-04-16T02:04:31.494Z,0.51
2023-04-16T02:05:31.567Z,0.51
2023-04-16T02:06:31.659Z,0.51
2023-04-16T02:07:31.680Z,0.51
2023-04-16T02:08:31.777Z,0.51
2023-04-16T02:09:31.818Z,0.51
2023-04-16T02:10:31.905Z,0.51
2023-04-16T02:11:31.944Z,0.52
2023-04-16T02:12:32.027Z,0.52
2023-04-16T02:13:32.104Z,0.51
2023-04-16T02:14:32.147Z,0.52
2023-04-16T02:15:32.217Z,0.52
2023-04-16T02:16:32.294Z,0.52
2023-04-16T02:17:32.315Z,0.51
2023-04-16T02:18:32.385Z,0.51
2023-04-16T02:19:32.439Z,0.52
2023-04-16T02:20:32.512Z,0.51
2023-04-16T02:21:32.564Z,0.52
2023-04-16T02:22:32.719Z,0.51
2023-04-16T02:23:32.673Z,0.52
2023-04-16T02:24:32.730Z,0.51
2023-04-16T02:25:32.790Z,0.51
2023-04-16T02:26:32.837Z,0.51
2023-04-16T02:27:32.899Z,0.51
2023-04-16T02:28:32.993Z,0.52
2023-04-16T02:29:33.004Z,0.51
2023-04-16T02:30:33.037Z,0.51
2023-04-16T02:31:33.136Z,0.51
2023-04-16T02:32:33.162Z,0.51
2023-04-16T02:33:33.224Z,0.51
2023-04-16T02:34:33.260Z,0.51
2023-04-16T02:35:33.371Z,0.51
2023-04-16T02:36:33.404Z,0.51
2023-04-16T02:37:33.466Z,0.51
2023-04-16T02:38:33.501Z,0.51
2023-04-16T02:39:33.552Z,0.51
2023-04-16T02:40:33.590Z,0.50
2023-04-16T02:41:33.650Z,0.50
2023-04-16T02:42:33.685Z,0.52
2023-04-16T02:43:33.759Z,0.53
2023-04-16T02:44:33.741Z,0.53
2023-04-16T02:45:33.824Z,0.54
2023-04-16T02:46:33.864Z,0.53
2023-04-16T02:47:33.927Z,0.53
2023-04-16T02:48:33.924Z,0.52
2023-04-16T02:49:33.984Z,0.51
2023-04-16T02:50:34.022Z,0.52
2023-04-16T02:51:34.067Z,0.52
2023-04-16T02:52:34.076Z,0.53
2023-04-16T02:53:34.112Z,0.52
2023-04-16T02:54:34.084Z,0.53
2023-04-16T02:55:34.159Z,0.53
2023-04-16T02:56:34.201Z,0.53
2023-04-16T02:57:34.188Z,0.52
2023-04-16T02:58:34.244Z,0.53
2023-04-16T02:59:34.270Z,0.52
2023-04-16T03:00:34.295Z,0.54
2023-04-16T03:01:34.307Z,0.53
2023-04-16T03:02:34.436Z,0.54
2023-04-16T03:03:34.376Z,0.53
2023-04-16T03:04:34.509Z,0.54
2023-04-16T03:05:34.459Z,0.54
2023-04-16T03:06:34.507Z,0.54
2023-04-16T03:07:34.548Z,0.54
2023-04-16T03:08:34.546Z,0.53
2023-04-16T03:09:34.609Z,0.53
2023-04-16T03:10:34.640Z,0.53
2023-04-16T03:11:34.666Z,0.53
2023-04-16T03:12:34.698Z,0.53
2023-04-16T03:13:34.691Z,0.52
2023-04-16T03:14:34.698Z,0.53
2023-04-16T03:15:34.730Z,0.52
2023-04-16T03:16:34.712Z,0.50
2023-04-16T03:17:34.746Z,0.50
2023-04-16T03:18:34.752Z,0.51
2023-04-16T03:19:34.740Z,0.51
2023-04-16T03:20:34.757Z,0.51
2023-04-16T03:21:34.762Z,0.51
2023-04-16T03:22:34.756Z,0.50
2023-04-16T03:23:34.736Z,0.51
2023-04-16T03:24:34.727Z,0.51
2023-04-16T03:25:34.769Z,0.51
2023-04-16T03:26:34.729Z,0.52
2023-04-16T03:27:34.754Z,0.52
2023-04-16T03:28:34.753Z,0.52
2023-04-16T03:29:34.725Z,0.51
2023-04-16T03:30:34.759Z,0.51
2023-04-16T03:31:34.860Z,0.50
2023-04-16T03:32:34.832Z,0.51
2023-04-16T03:33:34.796Z,0.51
2023-04-16T03:34:34.807Z,0.51
2023-04-16T03:35:34.786Z,0.51
2023-04-16T03:36:34.777Z,0.51
2023-04-16T03:37:34.816Z,0.52
2023-04-16T03:38:34.871Z,0.51
2023-04-16T03:39:34.864Z,0.51
2023-04-16T03:40:34.902Z,0.52
2023-04-16T03:41:34.928Z,0.51
2023-04-16T03:42:34.948Z,0.52
2023-04-16T03:43:34.984Z,0.53
2023-04-16T03:44:35.006Z,0.52
2023-04-16T03:45:35.043Z,0.51
2023-04-16T03:46:35.138Z,0.51
2023-04-16T03:47:35.135Z,0.52
2023-04-16T03:48:35.144Z,0.52
2023-04-16T03:49:35.199Z,0.52
2023-04-16T03:50:35.249Z,0.52
2023-04-16T03:51:35.284Z,0.51
2023-04-16T03:52:35.330Z,0.53
2023-04-16T03:53:35.382Z,0.52
2023-04-16T03:54:35.417Z,0.51
2023-04-16T03:55:35.450Z,0.52
2023-04-16T03:56:35.515Z,0.52
2023-04-16T03:57:35.532Z,0.51
2023-04-16T03:58:35.615Z,0.51
2023-04-16T03:59:35.636Z,0.52
2023-04-16T04:00:35.613Z,0.51
2023-04-16T04:01:35.721Z,0.52
2023-04-16T04:02:35.795Z,0.51
2023-04-16T04:03:36.056Z,0.50
2023-04-16T04:04:35.817Z,0.51
2023-04-16T04:05:35.771Z,0.50
2023-04-16T04:06:35.745Z,0.51
2023-04-16T04:07:35.759Z,0.52
2023-04-16T04:08:35.790Z,0.51
2023-04-16T04:09:35.816Z,0.51
2023-04-16T04:10:35.814Z,0.51
2023-04-16T04:11:35.818Z,0.51
2023-04-16T04:12:35.852Z,0.51
2023-04-16T04:13:35.870Z,0.51
2023-04-16T04:14:35.912Z,0.51
2023-04-16T04:15:35.938Z,0.52
2023-04-16T04:16:36.011Z,0.53
2023-04-16T04:17:36.044Z,0.52
2023-04-16T04:18:36.036Z,0.53
2023-04-16T04:19:36.857Z,0.52
2023-04-16T04:20:36.103Z,0.52
2023-04-16T04:21:36.152Z,0.52
2023-04-16T04:22:36.115Z,0.51
2023-04-16T04:23:36.147Z,0.51
2023-04-16T04:24:36.155Z,0.52
2023-04-16T04:25:36.162Z,0.52
2023-04-16T04:26:36.264Z,0.52
2023-04-16T04:27:36.191Z,0.52
2023-04-16T04:28:36.306Z,0.52
2023-04-16T04:29:36.192Z,0.51
2023-04-16T04:30:36.217Z,0.51
2023-04-16T04:31:36.219Z,0.52
2023-04-16T04:32:36.255Z,0.52
2023-04-16T04:33:36.232Z,0.52
2023-04-16T04:34:36.171Z,0.51
2023-04-16T04:35:36.191Z,0.52
2023-04-16T04:36:36.174Z,0.52
2023-04-16T04:37:36.193Z,0.52
2023-04-16T04:38:36.164Z,0.52
2023-04-16T04:39:36.178Z,0.52
2023-04-16T04:40:36.151Z,0.53
2023-04-16T04:41:36.169Z,0.52
2023-04-16T04:42:36.130Z,0.52
2023-04-16T04:43:36.170Z,0.52
2023-04-16T04:44:36.130Z,0.52
2023-04-16T04:45:36.117Z,0.51
2023-04-16T04:46:36.124Z,0.52
2023-04-16T04:47:36.126Z,0.51
2023-04-16T04:48:36.099Z,0.51
2023-04-16T04:49:36.112Z,0.51
2023-04-16T04:50:36.100Z,0.51
2023-04-16T04:51:36.071Z,0.51
2023-04-16T04:52:36.085Z,0.52
2023-04-16T04:53:36.078Z,0.51
2023-04-16T04:54:36.040Z,0.51
2023-04-16T04:55:36.060Z,0.50
2023-04-16T04:56:36.045Z,0.51
2023-04-16T04:57:36.073Z,0.51
2023-04-16T04:58:36.068Z,0.51
2023-04-16T04:59:36.042Z,0.51
2023-04-16T05:00:35.998Z,0.52
2023-04-16T05:01:36.131Z,0.51
2023-04-16T05:02:36.044Z,0.51
2023-04-16T05:03:36.074Z,0.51
2023-04-16T05:04:36.057Z,0.51
2023-04-16T05:05:35.986Z,0.51
2023-04-16T05:06:36.010Z,0.52
2023-04-16T05:07:36.021Z,0.52
2023-04-16T05:08:36.035Z,0.53
2023-04-16T05:09:36.087Z,0.53
2023-04-16T05:10:36.053Z,0.53
2023-04-16T05:11:36.118Z,0.52
2023-04-16T05:12:36.137Z,0.54
2023-04-16T05:13:36.138Z,0.53
2023-04-16T05:14:36.177Z,0.54
2023-04-16T05:15:36.186Z,0.54
2023-04-16T05:16:36.251Z,0.53
2023-04-16T05:17:36.251Z,0.53
2023-04-16T05:18:36.256Z,0.53
2023-04-16T05:19:36.275Z,0.53
2023-04-16T05:20:36.307Z,0.53
2023-04-16T05:21:36.282Z,0.53
2023-04-16T05:22:36.301Z,0.54
2023-04-16T05:23:36.350Z,0.55
2023-04-16T05:24:36.331Z,0.55
2023-04-16T05:25:36.360Z,0.55
2023-04-16T05:26:36.379Z,0.54
2023-04-16T05:27:36.440Z,0.55
2023-04-16T05:28:36.435Z,0.55
2023-04-16T05:29:36.432Z,0.55
2023-04-16T05:30:36.506Z,0.55
2023-04-16T05:31:36.493Z,0.54
2023-04-16T05:32:38.225Z,0.54
2023-04-16T05:33:36.577Z,0.54
2023-04-16T05:34:36.586Z,0.55
2023-04-16T05:35:36.624Z,0.54
2023-04-16T05:36:36.698Z,0.54
2023-04-16T05:37:36.687Z,0.54
2023-04-16T05:38:36.679Z,0.55
2023-04-16T05:39:36.696Z,0.55
2023-04-16T05:40:36.699Z,0.55
2023-04-16T05:41:36.712Z,0.55
2023-04-16T05:42:36.746Z,0.56
2023-04-16T05:43:36.738Z,0.55
2023-04-16T05:44:36.748Z,0.56
2023-04-16T05:45:36.702Z,0.55
2023-04-16T05:46:36.716Z,0.56
2023-04-16T05:47:36.702Z,0.56
2023-04-16T05:48:36.717Z,0.56
2023-04-16T05:49:36.682Z,0.56
2023-04-16T05:50:36.706Z,0.56
2023-04-16T05:51:36.672Z,0.58
2023-04-16T05:52:36.657Z,0.58
2023-04-16T05:53:36.673Z,0.56
2023-04-16T05:54:36.707Z,0.56
2023-04-16T05:55:36.710Z,0.56
2023-04-16T05:56:36.690Z,0.56
2023-04-16T05:57:36.691Z,0.58
2023-04-16T05:58:36.740Z,0.56
2023-04-16T05:59:36.697Z,0.57
2023-04-16T06:00:36.686Z,0.58
2023-04-16T06:01:36.722Z,0.59
2023-04-16T06:02:36.823Z,0.57
2023-04-16T06:03:36.785Z,0.57
2023-04-16T06:04:36.702Z,0.57
2023-04-16T06:05:36.729Z,0.58
2023-04-16T06:06:36.699Z,0.58
2023-04-16T06:07:36.697Z,0.58
2023-04-16T06:08:36.723Z,0.57
2023-04-16T06:09:36.725Z,0.57
2023-04-16T06:10:36.778Z,0.58
2023-04-16T06:11:36.810Z,0.58
2023-04-16T06:12:36.845Z,0.59
2023-04-16T06:13:36.877Z,0.57
2023-04-16T06:14:36.914Z,0.59
2023-04-16T06:15:36.989Z,0.60
2023-04-16T06:16:37.008Z,0.59
2023-04-16T06:17:37.094Z,0.58
2023-04-16T06:18:37.092Z,0.58
2023-04-16T06:19:37.078Z,0.59
2023-04-16T06:20:37.159Z,0.60
2023-04-16T06:21:37.188Z,0.60
2023-04-16T06:22:37.221Z,0.59
2023-04-16T06:23:37.276Z,0.60
2023-04-16T06:24:37.353Z,0.61
2023-04-16T06:25:37.425Z,0.60
2023-04-16T06:26:37.468Z,0.60
2023-04-16T06:27:37.560Z,0.59
2023-04-16T06:28:37.579Z,0.60
2023-04-16T06:29:41.654Z,0.60
2023-04-16T06:30:37.649Z,0.60
2023-04-16T06:31:37.672Z,0.60
2023-04-16T06:32:37.663Z,0.60
2023-04-16T06:33:37.622Z,0.61
2023-04-16T06:34:37.649Z,0.59
2023-04-16T06:35:37.595Z,0.60
2023-04-16T06:36:37.668Z,0.60
2023-04-16T06:37:37.631Z,0.60
2023-04-16T06:38:37.588Z,0.59
2023-04-16T06:39:37.571Z,0.59
2023-04-16T06:40:37.592Z,0.58
2023-04-16T06:41:37.561Z,0.59
2023-04-16T06:42:37.580Z,0.57
2023-04-16T06:43:37.579Z,0.56
2023-04-16T06:44:37.555Z,0.56
2023-04-16T06:45:37.569Z,0.55
2023-04-16T06:46:37.602Z,0.56
2023-04-16T06:47:37.699Z,0.56
2023-04-16T06:48:37.576Z,0.56
2023-04-16T06:49:37.624Z,0.56
2023-04-16T06:50:37.625Z,0.56
2023-04-16T06:51:37.674Z,0.55
2023-04-16T06:52:37.713Z,0.56
2023-04-16T06:53:37.746Z,0.55
2023-04-16T06:54:37.785Z,0.54
2023-04-16T06:55:37.828Z,0.55
2023-04-16T06:56:37.826Z,0.55
2023-04-16T06:57:37.893Z,0.55
2023-04-16T06:58:37.920Z,0.55
2023-04-16T06:59:37.917Z,0.57
2023-04-16T07:00:37.998Z,0.56
2023-04-16T07:01:37.959Z,0.55
2023-04-16T07:02:38.128Z,0.55
2023-04-16T07:03:38.124Z,0.55
2023-04-16T07:04:38.049Z,0.56
2023-04-16T07:05:38.103Z,0.55
2023-04-16T07:06:38.125Z,0.54
2023-04-16T07:07:38.174Z,0.55
2023-04-16T07:08:38.219Z,0.55
2023-04-16T07:09:38.293Z,0.57
2023-04-16T07:10:38.340Z,0.58
2023-04-16T07:11:38.426Z,0.57
2023-04-16T07:12:38.448Z,0.57
2023-04-16T07:13:38.551Z,0.56
2023-04-16T07:14:38.565Z,0.55
2023-04-16T07:15:38.644Z,0.55
2023-04-16T07:16:38.718Z,0.55
2023-04-16T07:17:38.790Z,0.55
2023-04-16T07:18:38.846Z,0.55
2023-04-16T07:19:38.918Z,0.55
2023-04-16T07:20:38.945Z,0.55
2023-04-16T07:21:39.048Z,0.56
2023-04-16T07:22:39.108Z,0.56
2023-04-16T07:23:39.140Z,0.54
2023-04-16T07:24:39.229Z,0.55
2023-04-16T07:25:39.391Z,0.55
2023-04-16T07:26:39.322Z,0.54
2023-04-16T07:27:39.394Z,0.54
2023-04-16T07:28:39.511Z,0.55
2023-04-16T07:29:39.556Z,0.55
2023-04-16T07:30:39.610Z,0.54
2023-04-16T07:31:39.750Z,0.54
2023-04-16T07:32:39.768Z,0.54
2023-04-16T07:33:39.781Z,0.55
2023-04-16T07:34:39.825Z,0.54
2023-04-16T07:35:39.928Z,0.54
2023-04-16T07:36:39.949Z,0.55
2023-04-16T07:37:40.023Z,0.55
2023-04-16T07:38:40.114Z,0.55
2023-04-16T07:39:40.175Z,0.54
2023-04-16T07:40:40.198Z,0.56
2023-04-16T07:41:40.293Z,0.55
2023-04-16T07:42:40.333Z,0.55
2023-04-16T07:43:40.399Z,0.55
2023-04-16T07:44:40.456Z,0.55
2023-04-16T07:45:41.420Z,0.56
2023-04-16T07:46:46.761Z,0.56
2023-04-16T07:47:41.568Z,0.56
2023-04-16T07:48:40.468Z,0.57
2023-04-16T07:49:40.487Z,0.56
2023-04-16T07:50:40.490Z,0.57
2023-04-16T07:51:40.494Z,0.56
2023-04-16T07:52:40.449Z,0.56
2023-04-16T07:53:40.466Z,0.56
2023-04-16T07:54:40.461Z,0.56
2023-04-16T07:55:40.478Z,0.55
2023-04-16T07:56:40.551Z,0.55
2023-04-16T07:57:40.620Z,0.57
2023-04-16T07:58:40.686Z,0.57
2023-04-16T07:59:40.715Z,0.56
2023-04-16T08:00:40.786Z,0.58
2023-04-16T08:01:40.842Z,0.56
2023-04-16T08:02:41.022Z,0.56
2023-04-16T08:03:41.127Z,0.57
2023-04-16T08:04:41.224Z,0.57
2023-04-16T08:05:41.124Z,0.58
2023-04-16T08:06:41.170Z,0.57
2023-04-16T08:07:41.246Z,0.56
2023-04-16T08:08:41.311Z,0.58
2023-04-16T08:09:41.346Z,0.56
2023-04-16T08:10:41.388Z,0.58
2023-04-16T08:11:41.457Z,0.56
2023-04-16T08:12:41.520Z,0.56
2023-04-16T08:13:41.562Z,0.58
2023-04-16T08:14:41.639Z,0.58
2023-04-16T08:15:41.723Z,0.57
2023-04-16T08:16:41.732Z,0.57
2023-04-16T08:17:41.818Z,0.58
2023-04-16T08:18:41.874Z,0.56
2023-04-16T08:19:41.910Z,0.56
2023-04-16T08:20:41.944Z,0.56
2023-04-16T08:21:42.033Z,0.56
2023-04-16T08:22:42.060Z,0.55
2023-04-16T08:23:42.134Z,0.56
2023-04-16T08:24:42.169Z,0.55
2023-04-16T08:25:42.213Z,0.55
2023-04-16T08:26:42.255Z,0.55
2023-04-16T08:27:42.341Z,0.55
2023-04-16T08:28:42.406Z,0.56
2023-04-16T08:29:42.403Z,0.55
2023-04-16T08:30:42.481Z,0.55
2023-04-16T08:31:42.717Z,0.57
2023-04-16T08:32:42.604Z,0.56
2023-04-16T08:33:42.647Z,0.54
2023-04-16T08:34:42.700Z,0.55
2023-04-16T08:35:42.741Z,0.55
2023-04-16T08:36:42.764Z,0.56
2023-04-16T08:37:42.864Z,0.55
2023-04-16T08:38:42.888Z,0.55
2023-04-16T08:39:42.951Z,0.55
2023-04-16T08:40:43.663Z,0.55
2023-04-16T08:41:43.014Z,0.56
2023-04-16T08:42:43.086Z,0.55
2023-04-16T08:43:43.159Z,0.55
2023-04-16T08:44:43.176Z,0.55
2023-04-16T08:45:43.211Z,0.55
2023-04-16T08:46:43.322Z,0.56
2023-04-16T08:47:43.368Z,0.56
2023-04-16T08:48:43.392Z,0.55
2023-04-16T08:49:43.439Z,0.56
2023-04-16T08:50:43.571Z,0.56
2023-04-16T08:51:43.530Z,0.54
2023-04-16T08:52:43.598Z,0.57
2023-04-16T08:53:43.684Z,0.57
2023-04-16T08:54:43.712Z,0.57
2023-04-16T08:55:43.749Z,0.57
2023-04-16T08:56:43.817Z,0.58
2023-04-16T08:57:43.874Z,0.58
2023-04-16T08:58:43.930Z,0.58
2023-04-16T08:59:43.968Z,0.58
2023-04-16T09:00:44.063Z,0.57
2023-04-16T09:01:44.085Z,0.58
2023-04-16T09:02:44.426Z,0.57
2023-04-16T09:03:44.363Z,0.56
2023-04-16T09:04:44.309Z,0.57
2023-04-16T09:05:44.267Z,0.57
2023-04-16T09:06:44.312Z,0.57
2023-04-16T09:07:44.353Z,0.57
2023-04-16T09:08:44.408Z,0.55
2023-04-16T09:09:44.452Z,0.57
2023-04-16T09:10:44.492Z,0.54
2023-04-16T09:11:44.520Z,0.54
2023-04-16T09:12:44.543Z,0.55
2023-04-16T09:13:44.599Z,0.55
2023-04-16T09:14:44.626Z,0.52
2023-04-16T09:15:44.691Z,0.52
2023-04-16T09:16:44.767Z,0.53
2023-04-16T09:17:44.828Z,0.52
2023-04-16T09:18:44.923Z,0.51
2023-04-16T09:19:44.865Z,0.51
2023-04-16T09:20:44.943Z,0.51
2023-04-16T09:21:44.986Z,0.53
2023-04-16T09:22:45.041Z,0.52
2023-04-16T09:23:45.089Z,0.52
2023-04-16T09:24:45.123Z,0.52
2023-04-16T09:25:45.182Z,0.52
2023-04-16T09:26:45.214Z,0.51
2023-04-16T09:27:45.271Z,0.52
2023-04-16T09:28:45.350Z,0.52
2023-04-16T09:29:45.373Z,0.52
2023-04-16T09:30:45.373Z,0.51
2023-04-16T09:31:45.480Z,0.53
2023-04-16T09:32:45.562Z,0.52
2023-04-16T09:33:45.535Z,0.52
2023-04-16T09:34:45.591Z,0.53
2023-04-16T09:35:45.631Z,0.53
2023-04-16T09:36:45.694Z,0.53
2023-04-16T09:37:45.717Z,0.53
2023-04-16T09:38:45.797Z,0.53
2023-04-16T09:39:45.783Z,0.53
2023-04-16T09:40:45.825Z,0.52
2023-04-16T09:41:45.880Z,0.54
2023-04-16T09:42:45.906Z,0.52
2023-04-16T09:43:45.953Z,0.52
2023-04-16T09:44:45.999Z,0.52
2023-04-16T09:45:46.050Z,0.53
2023-04-16T09:46:46.078Z,0.51
2023-04-16T09:47:46.154Z,0.51
2023-04-16T09:48:46.225Z,0.51
2023-04-16T09:49:46.236Z,0.51
2023-04-16T09:50:46.255Z,0.50
2023-04-16T09:51:46.288Z,0.51
2023-04-16T09:52:46.342Z,0.50
2023-04-16T09:53:46.425Z,0.50
2023-04-16T09:54:46.469Z,0.52
2023-04-16T09:55:46.973Z,0.51
2023-04-16T09:56:46.543Z,0.50
2023-04-16T09:57:46.577Z,0.51
2023-04-16T09:58:46.603Z,0.50
2023-04-16T09:59:46.684Z,0.50
2023-04-16T10:00:46.688Z,0.51
2023-04-16T10:01:46.923Z,0.51
2023-04-16T10:02:49.176Z,0.50
2023-04-16T10:03:46.994Z,0.52
2023-04-16T10:04:46.834Z,0.53
2023-04-16T10:05:46.751Z,0.53
2023-04-16T10:06:46.747Z,0.52
2023-04-16T10:07:46.740Z,0.51
2023-04-16T10:08:48.465Z,0.52
2023-04-16T10:09:46.756Z,0.52
2023-04-16T10:10:46.697Z,0.51
2023-04-16T10:11:46.736Z,0.50
2023-04-16T10:12:46.729Z,0.51
2023-04-16T10:13:46.722Z,0.51
2023-04-16T10:14:48.346Z,0.51
2023-04-16T10:15:46.687Z,0.51
2023-04-16T10:16:46.699Z,0.51
2023-04-16T10:17:46.686Z,0.51
2023-04-16T10:18:46.682Z,0.52
2023-04-16T10:19:46.670Z,0.51
2023-04-16T10:20:46.677Z,0.51
2023-04-16T10:21:46.643Z,0.51
2023-04-16T10:22:46.633Z,0.50
2023-04-16T10:23:46.676Z,0.51
2023-04-16T10:24:46.643Z,0.51
2023-04-16T10:25:46.626Z,0.52
2023-04-16T10:26:46.617Z,0.51
2023-04-16T10:27:46.622Z,0.51
2023-04-16T10:28:46.598Z,0.51
2023-04-16T10:29:46.625Z,0.52
2023-04-16T10:30:46.682Z,0.51
2023-04-16T10:31:46.622Z,0.50
2023-04-16T10:32:46.631Z,0.51
2023-04-16T10:33:46.568Z,0.51
2023-04-16T10:34:46.560Z,0.50
2023-04-16T10:35:52.448Z,0.50
2023-04-16T10:36:47.535Z,0.50
2023-04-16T10:37:46.554Z,0.51
2023-04-16T10:38:46.564Z,0.51
2023-04-16T10:39:46.520Z,0.50
2023-04-16T10:40:46.528Z,0.48
2023-04-16T10:41:46.536Z,0.50
2023-04-16T10:42:46.495Z,0.51
2023-04-16T10:43:46.556Z,0.52
2023-04-16T10:44:46.486Z,0.51
2023-04-16T10:45:46.512Z,0.52
2023-04-16T10:46:46.501Z,0.52
2023-04-16T10:47:46.511Z,0.51
2023-04-16T10:48:50.327Z,0.53
2023-04-16T10:49:46.469Z,0.53
2023-04-16T10:50:46.474Z,0.53
2023-04-16T10:51:46.431Z,0.53
2023-04-16T10:52:46.434Z,0.53
2023-04-16T10:53:46.455Z,0.52
2023-04-16T10:54:46.433Z,0.52
2023-04-16T10:55:46.417Z,0.51
2023-04-16T10:56:46.418Z,0.52
2023-04-16T10:57:46.402Z,0.53
2023-04-16T10:58:46.407Z,0.50
2023-04-16T10:59:46.425Z,0.51
2023-04-16T11:00:46.408Z,0.51
2023-04-16T11:01:46.429Z,0.51
2023-04-16T11:02:46.597Z,0.52
2023-04-16T11:03:46.537Z,0.54
2023-04-16T11:04:46.486Z,0.54
2023-04-16T11:05:46.346Z,0.53
2023-04-16T11:06:46.376Z,0.53
2023-04-16T11:07:46.349Z,0.54
2023-04-16T11:08:54.077Z,0.53
2023-04-16T11:09:47.358Z,0.53
2023-04-16T11:10:46.313Z,0.53
2023-04-16T11:11:46.316Z,0.54
2023-04-16T11:12:46.316Z,0.53
2023-04-16T11:13:46.295Z,0.53
2023-04-16T11:14:46.286Z,0.54
2023-04-16T11:15:46.302Z,0.53
2023-04-16T11:16:46.285Z,0.53
2023-04-16T11:17:46.358Z,0.52
2023-04-16T11:18:51.419Z,0.52
2023-04-16T11:19:47.297Z,0.52
2023-04-16T11:20:46.282Z,0.52
2023-04-16T11:21:46.259Z,0.52
2023-04-16T11:22:46.260Z,0.53
2023-04-16T11:23:46.233Z,0.52
2023-04-16T11:24:46.242Z,0.54
2023-04-16T11:25:46.222Z,0.55
2023-04-16T11:26:46.221Z,0.54
2023-04-16T11:27:46.226Z,0.55
2023-04-16T11:28:46.240Z,0.53
2023-04-16T11:29:47.601Z,0.54
2023-04-16T11:30:46.215Z,0.53
2023-04-16T11:31:46.261Z,0.54
2023-04-16T11:32:46.278Z,0.52
2023-04-16T11:33:46.284Z,0.51
2023-04-16T11:34:46.317Z,0.54
2023-04-16T11:35:46.328Z,0.54
2023-04-16T11:36:46.374Z,0.54
2023-04-16T11:37:46.431Z,0.54
2023-04-16T11:38:46.478Z,0.54
2023-04-16T11:39:46.506Z,0.54
2023-04-16T11:40:46.551Z,0.54
2023-04-16T11:41:46.560Z,0.55
2023-04-16T11:42:46.605Z,0.56
2023-04-16T11:43:46.657Z,0.56
2023-04-16T11:44:46.668Z,0.57
2023-04-16T11:45:46.711Z,0.60
2023-04-16T11:46:46.830Z,0.59
2023-04-16T11:47:46.798Z,0.58
2023-04-16T11:48:46.793Z,0.59
2023-04-16T11:49:46.839Z,0.59
2023-04-16T11:50:46.842Z,0.61
2023-04-16T11:51:46.879Z,0.61
2023-04-16T11:52:46.907Z,0.60
2023-04-16T11:53:46.968Z,0.61
2023-04-16T11:54:46.967Z,0.62
2023-04-16T11:55:47.009Z,0.62
2023-04-16T11:56:47.174Z,0.63
2023-04-16T11:57:47.071Z,0.62
2023-04-16T11:58:47.119Z,0.61
2023-04-16T12:00:01.659Z,0.62
2023-04-16T12:00:48.134Z,0.62
2023-04-16T12:01:47.183Z,0.62
2023-04-16T12:02:47.241Z,0.63
2023-04-16T12:03:47.416Z,0.65
2023-04-16T12:04:47.174Z,0.68
2023-04-16T12:05:47.102Z,0.69
2023-04-16T12:06:47.123Z,0.71
2023-04-16T12:07:47.088Z,0.71
2023-04-16T12:08:47.156Z,0.72
2023-04-16T12:09:47.088Z,0.72
2023-04-16T12:10:47.097Z,0.73
2023-04-16T12:11:47.045Z,0.74
2023-04-16T12:12:47.036Z,0.75
2023-04-16T12:13:47.034Z,0.76
2023-04-16T12:14:47.067Z,0.75
2023-04-16T12:15:47.084Z,0.76
2023-04-16T12:16:47.209Z,0.75
2023-04-16T12:17:47.105Z,0.73
2023-04-16T12:18:47.174Z,0.74
2023-04-16T12:19:47.169Z,0.74
2023-04-16T12:20:47.182Z,0.75
2023-04-16T12:21:47.228Z,0.76
2023-04-16T12:22:47.279Z,0.76
2023-04-16T12:23:47.283Z,0.74
2023-04-16T12:24:47.318Z,0.73
2023-04-16T12:25:47.324Z,0.73
2023-04-16T12:26:47.386Z,0.73
2023-04-16T12:27:47.411Z,0.73
2023-04-16T12:28:47.425Z,0.74
2023-04-16T12:29:47.520Z,0.74
2023-04-16T12:30:47.572Z,0.76
2023-04-16T12:31:47.563Z,0.75
2023-04-16T12:32:47.585Z,0.75
2023-04-16T12:33:47.598Z,0.76
2023-04-16T12:34:49.220Z,0.77
2023-04-16T12:35:47.685Z,0.76
2023-04-16T12:36:47.740Z,0.78
2023-04-16T12:37:47.745Z,0.77
2023-04-16T12:38:47.758Z,0.76
2023-04-16T12:39:48.115Z,0.78
2023-04-16T12:40:47.841Z,0.77
2023-04-16T12:41:47.896Z,0.76
2023-04-16T12:42:47.895Z,0.76
2023-04-16T12:43:47.930Z,0.74
2023-04-16T12:44:47.958Z,0.74
2023-04-16T12:45:48.055Z,0.73
2023-04-16T12:46:48.160Z,0.74
2023-04-16T12:47:48.071Z,0.74
2023-04-16T12:48:48.092Z,0.75
2023-04-16T12:49:48.208Z,0.74
2023-04-16T12:50:48.095Z,0.74
2023-04-16T12:51:48.114Z,0.74
2023-04-16T12:52:48.107Z,0.73
2023-04-16T12:53:48.109Z,0.72
2023-04-16T12:54:48.062Z,0.72
2023-04-16T12:55:48.067Z,0.70
2023-04-16T12:56:48.079Z,0.70
2023-04-16T12:57:48.073Z,0.71
2023-04-16T12:58:48.060Z,0.71
2023-04-16T12:59:48.040Z,0.71
2023-04-16T13:00:48.028Z,0.70
2023-04-16T13:01:48.100Z,0.70
2023-04-16T13:02:48.149Z,0.71
2023-04-16T13:03:48.316Z,0.73
2023-04-16T13:04:48.136Z,0.73
2023-04-16T13:05:48.157Z,0.72
2023-04-16T13:06:48.173Z,0.71
2023-04-16T13:07:48.206Z,0.71
2023-04-16T13:08:48.269Z,0.69
2023-04-16T13:09:48.276Z,0.67
2023-04-16T13:10:48.335Z,0.66
2023-04-16T13:11:48.345Z,0.64
2023-04-16T13:12:48.397Z,0.63
2023-04-16T13:13:48.443Z,0.62
2023-04-16T13:14:48.472Z,0.60
2023-04-16T13:15:48.577Z,0.62
2023-04-16T13:16:48.555Z,0.65
2023-04-16T13:17:48.663Z,0.65
2023-04-16T13:18:48.600Z,0.62